Archival Weather

Republic

Farmingdale, New York (KFRG)

Report from: Wednesday, February 21, 2024 12:53 PM EST
Current time: Friday, June 14, 2024 9:35 AM EDT

Current weather – Weather history – Daily summaries
Weather forecast

Temperature2.8°C (37.0°F)
Wind chill0.7°C (33.3°F)
Dew point-3.9°C (25.0°F)
Winds 4 kts (2.1 m/s, 4.6 mph) East (100°)
Visibility10 mi. (16.1 km)
Clouds Ceiling: Overcast 3,100 ft. (945 m)
Altimeter30.42 in.Hg (1030 mB)
Relative humidity61 %
Density altitude-1,980 ft. (-604 m)
Sea-level pressure103.0 kPa (1030 mB, 30.42 in.Hg)
Max temp last 6 hours3.3°C (37.9°F)
Min temp last 6 hours-2.8°C (27.0°F)
Remarks Automated weather observing station without precipitation discriminator
Pressure falling more quickly
Flight conditions Visual Meteorological Conditions
Raw dataKFRG 211753Z 10004KT 10SM OVC031 03/M04 A3042 RMK AO1 SLP301 T00281039 10033 21028 58027
An error has occurred. This application may no longer respond until reloaded. Reload 🗙